KGED/GED METAR and TAF weather

Enter ICAO airport designator
Station Type Date Time Source
KGED METAR 2022/05/26 05:03 UTC NOAA

KGED 260503Z AUTO 06005KT 10SM BKN025 OVC060 15/12 A3031 RMK AO2 T01500122


Station Type Date Time Source
KGED Decoded METAR 2022/05/26 05:03 UTC NOAA

GEORGETOWN SUSSEX CO AIRPORT , DE, United States (KGED) 38-41N 075-22W 19M
May 26, 2022 - 01:03 AM EDT / 2022.05.26 0503 UTC
Wind: from the ENE (060 degrees) at 6 MPH (5 KT):0
Visibility: 10 mile(s):0
Sky conditions: overcast
Temperature: 59.0 F (15.0 C)
Dew Point: 54.0 F (12.2 C)
Relative Humidity: 83%
Pressure (altimeter): 30.31 in. Hg (1026 hPa)
ob: KGED 260503Z AUTO 06005KT 10SM BKN025 OVC060 15/12 A3031 RMK AO2 T01500122
cycle: 5

Station Type Date Time Source
KGED TAF UTC NOAA

Error!

Example: see airport list